Aviation Digital Data Service (ADDS)

Output produced by TAFs form (2319 UTC 06 February 2016)
found at http://www.aviationweather.gov/adds/tafs/
 
KGFL 062122Z 0621/0718 19010KT P6SM OVC060 
     FM062300 21005KT P6SM SCT060 SCT200 
     FM070300 VRB03KT P6SM SCT100 
     FM071200 26006KT P6SM FEW200